West Annville, Pennsylvania
Current Conditions -  °F | °C
As of 7:58 AM on Thursday 23 Oct 2014 (Local Time) from KMUI Reporting Station
Overcast Overcast  
Wind Chill: 11°   Ceiling: 2700
Heat Index: 11°   Visibility: 10mi
Dew Point:   Wind: 12mph
Humidity: 78%   Direction: 350°N
Pressure: 29.87"   Gusts: 21mph
Location:  40.3819°N, 76.5718°W
Report Text: KMUI 231158Z AUTO 35010G18KT 10SM OVC027 11/07 A2987 RMK AO2 SLP119 70004 T01100073 10111 20105 53003 $
Loading
Personal Weather Stations






























Interactive Weather Map
Tropical Storm Tracking
New forecast layout! Learn more

10-Day Weather Forecast

Advertisements
Track Severe Weather on mobile